Time;durP1;ratioP1;P1;durP2;ratioP2;P2;SDS_P1;SDS_P2;PMS_P1;PMS_P2;Temp;Humidity;BMP_temperature;BMP_pressure;BME280_temperature;BME280_humidity;BME280_pressure;Samples;Min_cycle;Max_cycle;Signal;HPM_P1;HPM_P2
2024/01/08 00:03:29;;;;;;;1.15;1.05;;;;;;;;;;10277478;28;20877;-69
2024/01/08 00:08:30;;;;;;;6.68;1.40;;;;;;;;;;10278490;28;21625;-69
2024/01/08 00:13:31;;;;;;;1.30;1.17;;;;;;;;;;10267484;28;20240;-69
2024/01/08 00:18:32;;;;;;;1.70;1.60;;;;;;;;;;10272417;28;20220;-69
2024/01/08 00:23:34;;;;;;;2.33;1.30;;;;;;;;;;10272712;28;21778;-69
2024/01/08 00:28:35;;;;;;;1.38;1.25;;;;;;;;;;10269979;28;20763;-69
2024/01/08 00:33:36;;;;;;;4.63;1.53;;;;;;;;;;10273312;28;20316;-69
2024/01/08 00:38:37;;;;;;;1.40;1.33;;;;;;;;;;10276702;28;20220;-69
2024/01/08 00:43:38;;;;;;;3.28;1.30;;;;;;;;;;10272848;28;20715;-69
2024/01/08 00:48:39;;;;;;;2.38;1.10;;;;;;;;;;10285118;28;20189;-69
2024/01/08 00:53:40;;;;;;;1.45;1.33;;;;;;;;;;10277201;28;20565;-69
2024/01/08 00:58:43;;;;;;;1.58;1.13;;;;;;;;;;10286402;28;20213;-69
2024/01/08 01:03:44;;;;;;;3.83;1.33;;;;;;;;;;10263651;28;20596;-69
2024/01/08 01:08:45;;;;;;;1.60;1.50;;;;;;;;;;10266875;28;20204;-69
2024/01/08 01:13:46;;;;;;;4.60;1.77;;;;;;;;;;10271574;28;20700;-69
2024/01/08 01:18:47;;;;;;;1.45;1.35;;;;;;;;;;10276670;28;20605;-69
2024/01/08 01:23:48;;;;;;;1.88;1.70;;;;;;;;;;10274823;28;20229;-69
2024/01/08 01:28:49;;;;;;;1.48;1.45;;;;;;;;;;10273978;28;20348;-69
2024/01/08 01:33:50;;;;;;;2.20;2.00;;;;;;;;;;10282491;28;20695;-69
2024/01/08 01:38:51;;;;;;;2.10;1.50;;;;;;;;;;10288051;28;20228;-69
2024/01/08 01:43:52;;;;;;;1.80;1.70;;;;;;;;;;10279744;28;21168;-69
2024/01/08 01:48:53;;;;;;;1.52;1.30;;;;;;;;;;10292961;28;20554;-69
2024/01/08 01:53:54;;;;;;;2.92;1.20;;;;;;;;;;10282675;28;20730;-69
2024/01/08 01:58:55;;;;;;;1.50;1.50;;;;;;;;;;10290993;28;20283;-69
2024/01/08 02:03:57;;;;;;;3.57;1.53;;;;;;;;;;10282905;28;20227;-69
2024/01/08 02:08:58;;;;;;;1.30;1.17;;;;;;;;;;10285128;28;20182;-69
2024/01/08 02:13:59;;;;;;;2.28;1.40;;;;;;;;;;10269515;28;20222;-69
2024/01/08 02:19:00;;;;;;;1.67;1.43;;;;;;;;;;10285435;28;20217;-68
2024/01/08 02:24:01;;;;;;;1.13;1.10;;;;;;;;;;10269113;28;20209;-68
2024/01/08 02:29:02;;;;;;;2.40;1.63;;;;;;;;;;10259598;28;20959;-68
2024/01/08 02:34:04;;;;;;;1.13;1.10;;;;;;;;;;10265765;28;20249;-68
2024/01/08 02:39:05;;;;;;;1.60;1.50;;;;;;;;;;10280387;28;20217;-68
2024/01/08 02:44:06;;;;;;;0.90;0.90;;;;;;;;;;10275307;28;20682;-68
2024/01/08 02:49:07;;;;;;;1.80;1.47;;;;;;;;;;10270032;28;20278;-69
2024/01/08 02:54:08;;;;;;;1.27;1.17;;;;;;;;;;10263379;28;20563;-68
2024/01/08 02:59:09;;;;;;;1.63;1.07;;;;;;;;;;10270791;28;20210;-67
2024/01/08 03:04:12;;;;;;;2.83;1.07;;;;;;;;;;10261731;28;20680;-67
2024/01/08 03:09:13;;;;;;;4.00;1.80;;;;;;;;;;10256868;28;20197;-67
2024/01/08 03:14:13;;;;;;;4.33;1.43;;;;;;;;;;10277148;28;21448;-67
2024/01/08 03:19:14;;;;;;;2.00;1.20;;;;;;;;;;10261480;28;20248;-67
2024/01/08 03:24:15;;;;;;;6.83;2.43;;;;;;;;;;10267651;28;20205;-67
2024/01/08 03:29:16;;;;;;;4.50;1.83;;;;;;;;;;10277076;28;20229;-67
2024/01/08 03:34:17;;;;;;;2.60;1.27;;;;;;;;;;10280542;28;20253;-67
2024/01/08 03:39:18;;;;;;;4.47;1.80;;;;;;;;;;10273579;28;20342;-67
2024/01/08 03:44:19;;;;;;;2.13;1.97;;;;;;;;;;10266635;28;20684;-67
2024/01/08 03:49:20;;;;;;;1.53;1.43;;;;;;;;;;10262850;28;20190;-67
2024/01/08 03:54:21;;;;;;;5.30;0.97;;;;;;;;;;10267134;28;20209;-67
2024/01/08 03:59:22;;;;;;;1.13;0.77;;;;;;;;;;10274711;28;20220;-67
2024/01/08 04:04:23;;;;;;;2.40;1.60;;;;;;;;;;10270246;28;20691;-67
2024/01/08 04:09:24;;;;;;;1.77;1.33;;;;;;;;;;10275657;28;20190;-67
2024/01/08 04:14:25;;;;;;;1.47;0.80;;;;;;;;;;10267920;28;20209;-67
2024/01/08 04:19:26;;;;;;;2.87;1.10;;;;;;;;;;10265733;28;20222;-67
2024/01/08 04:24:27;;;;;;;8.43;1.07;;;;;;;;;;10263222;28;20225;-67
2024/01/08 04:29:29;;;;;;;2.13;1.53;;;;;;;;;;10258431;28;20213;-67
2024/01/08 04:34:30;;;;;;;1.87;1.70;;;;;;;;;;10269575;28;20750;-68
2024/01/08 04:39:31;;;;;;;2.80;1.80;;;;;;;;;;10259208;28;20218;-68
2024/01/08 04:44:32;;;;;;;1.13;1.13;;;;;;;;;;10266315;28;20357;-67
2024/01/08 04:49:33;;;;;;;1.80;1.50;;;;;;;;;;10260830;28;20197;-67
2024/01/08 04:54:34;;;;;;;2.83;1.47;;;;;;;;;;10269411;28;20193;-67
2024/01/08 04:59:42;;;;;;;1.30;1.20;;;;;;;;;;10266984;28;20293;-68
2024/01/08 05:04:43;;;;;;;2.10;1.77;;;;;;;;;;10259877;28;20452;-67
2024/01/08 05:09:44;;;;;;;2.73;1.63;;;;;;;;;;10259186;28;20820;-67
2024/01/08 05:14:45;;;;;;;3.27;1.13;;;;;;;;;;10265905;28;20240;-67
2024/01/08 05:19:46;;;;;;;2.77;1.00;;;;;;;;;;10259733;28;20645;-67
2024/01/08 05:24:47;;;;;;;2.03;1.87;;;;;;;;;;10274145;28;20247;-67
2024/01/08 05:29:48;;;;;;;3.60;0.93;;;;;;;;;;10266223;28;20345;-67
2024/01/08 05:34:49;;;;;;;1.77;1.53;;;;;;;;;;10262266;28;20227;-68
2024/01/08 05:39:50;;;;;;;1.53;1.53;;;;;;;;;;10268885;28;20225;-67
2024/01/08 05:44:51;;;;;;;5.33;1.13;;;;;;;;;;10269006;28;20185;-67
2024/01/08 05:49:53;;;;;;;1.87;1.20;;;;;;;;;;10251662;28;20217;-67
2024/01/08 05:54:53;;;;;;;2.57;1.67;;;;;;;;;;10249877;28;20220;-67
2024/01/08 05:59:54;;;;;;;4.90;1.37;;;;;;;;;;10233214;28;20232;-67
2024/01/08 06:04:56;;;;;;;1.33;1.23;;;;;;;;;;10253423;28;20290;-67
2024/01/08 06:09:57;;;;;;;4.40;2.10;;;;;;;;;;10247539;28;20205;-68
2024/01/08 06:14:58;;;;;;;2.63;1.07;;;;;;;;;;10255125;28;20187;-67
2024/01/08 06:19:59;;;;;;;2.00;1.57;;;;;;;;;;10256531;28;20221;-67
2024/01/08 06:25:00;;;;;;;3.30;2.03;;;;;;;;;;10266702;28;20181;-67
2024/01/08 06:30:01;;;;;;;1.87;1.37;;;;;;;;;;10274606;28;20787;-68
2024/01/08 06:35:02;;;;;;;3.23;1.80;;;;;;;;;;10256458;28;20220;-67
2024/01/08 06:40:04;;;;;;;5.00;2.20;;;;;;;;;;10264122;28;20813;-67
2024/01/08 06:45:05;;;;;;;2.67;1.50;;;;;;;;;;10267381;28;20197;-68
2024/01/08 06:50:08;;;;;;;2.37;1.67;;;;;;;;;;10263782;28;20367;-67
2024/01/08 06:55:09;;;;;;;1.37;1.27;;;;;;;;;;10261655;28;20273;-67
2024/01/08 07:00:11;;;;;;;3.40;1.60;;;;;;;;;;10258753;28;20213;-67
2024/01/08 07:05:12;;;;;;;2.00;1.80;;;;;;;;;;10259910;28;20240;-67
2024/01/08 07:10:13;;;;;;;2.00;1.90;;;;;;;;;;10258200;28;20317;-67
2024/01/08 07:15:33;;;;;;;4.33;1.90;;;;;;;;;;10263792;28;20710;-67
2024/01/08 07:20:34;;;;;;;1.70;1.33;;;;;;;;;;10262219;28;20857;-67
2024/01/08 07:25:35;;;;;;;1.60;1.43;;;;;;;;;;10256127;28;20181;-67
2024/01/08 07:30:37;;;;;;;1.53;1.50;;;;;;;;;;10258558;28;20839;-67
2024/01/08 07:35:38;;;;;;;2.47;1.90;;;;;;;;;;10277501;28;20572;-67
2024/01/08 07:40:39;;;;;;;2.17;1.97;;;;;;;;;;10262714;28;20217;-67
2024/01/08 07:45:40;;;;;;;3.03;1.20;;;;;;;;;;10276610;28;20190;-66
2024/01/08 07:50:41;;;;;;;2.93;2.20;;;;;;;;;;10263474;28;20213;-67
2024/01/08 07:55:42;;;;;;;4.23;2.07;;;;;;;;;;10248834;28;20202;-67
2024/01/08 08:00:44;;;;;;;1.93;1.80;;;;;;;;;;10255412;28;25561;-66
2024/01/08 08:05:45;;;;;;;4.60;1.77;;;;;;;;;;10271520;28;20222;-66
2024/01/08 08:10:46;;;;;;;4.73;1.63;;;;;;;;;;10260070;28;20225;-66
2024/01/08 08:15:47;;;;;;;1.43;1.30;;;;;;;;;;10287147;28;20193;-67
2024/01/08 08:20:48;;;;;;;2.73;1.60;;;;;;;;;;10276096;28;20282;-66
2024/01/08 08:25:49;;;;;;;2.20;1.70;;;;;;;;;;10262514;28;20185;-67
2024/01/08 08:30:51;;;;;;;3.93;1.70;;;;;;;;;;10277456;28;20220;-68
2024/01/08 08:35:52;;;;;;;4.57;1.67;;;;;;;;;;10267725;28;20280;-67
2024/01/08 08:40:54;;;;;;;2.50;1.67;;;;;;;;;;10271696;28;21724;-67
2024/01/08 08:45:55;;;;;;;2.10;1.97;;;;;;;;;;10265500;28;20232;-68
2024/01/08 08:50:56;;;;;;;1.63;1.50;;;;;;;;;;10272855;28;20771;-67
2024/01/08 08:55:57;;;;;;;4.43;1.53;;;;;;;;;;10250735;28;20193;-68
2024/01/08 09:00:58;;;;;;;3.27;1.60;;;;;;;;;;10253641;28;20221;-68
2024/01/08 09:05:59;;;;;;;2.33;2.03;;;;;;;;;;10254477;28;20560;-68
2024/01/08 09:11:00;;;;;;;2.43;1.63;;;;;;;;;;10268101;28;20320;-68
2024/01/08 09:16:01;;;;;;;2.23;2.03;;;;;;;;;;10253865;28;20184;-68
2024/01/08 09:21:02;;;;;;;2.07;1.97;;;;;;;;;;10268494;28;20225;-68
2024/01/08 09:26:04;;;;;;;4.27;2.27;;;;;;;;;;10248844;28;20598;-68
2024/01/08 09:31:05;;;;;;;5.30;2.37;;;;;;;;;;10259253;28;20593;-67
2024/01/08 09:36:06;;;;;;;2.43;2.20;;;;;;;;;;10245551;28;20183;-68
2024/01/08 09:41:10;;;;;;;3.07;2.70;;;;;;;;;;10253626;28;20226;-68
2024/01/08 09:46:14;;;;;;;4.37;1.60;;;;;;;;;;10273782;28;20185;-68
2024/01/08 09:51:15;;;;;;;3.77;1.80;;;;;;;;;;10254608;28;20221;-68
2024/01/08 09:56:17;;;;;;;3.70;1.47;;;;;;;;;;10254656;28;20197;-67
2024/01/08 10:01:18;;;;;;;2.10;1.90;;;;;;;;;;10261675;28;20731;-68
2024/01/08 10:06:19;;;;;;;4.43;2.63;;;;;;;;;;10267389;28;20191;-66
2024/01/08 10:11:20;;;;;;;3.83;2.60;;;;;;;;;;10254554;28;20201;-67
2024/01/08 10:16:21;;;;;;;3.20;2.77;;;;;;;;;;10265757;28;20563;-67
2024/01/08 10:21:22;;;;;;;2.53;2.30;;;;;;;;;;10259243;28;20516;-66
2024/01/08 10:26:26;;;;;;;3.70;3.13;;;;;;;;;;10257277;28;20547;-67
2024/01/08 10:31:27;;;;;;;4.30;3.17;;;;;;;;;;10259543;28;20669;-67
2024/01/08 10:36:29;;;;;;;2.67;2.38;;;;;;;;;;10263470;28;20193;-67
2024/01/08 10:41:30;;;;;;;3.33;3.00;;;;;;;;;;10256676;28;20217;-67
2024/01/08 10:46:34;;;;;;;3.15;2.78;;;;;;;;;;10268367;28;20236;-67
2024/01/08 10:51:39;;;;;;;2.95;2.38;;;;;;;;;;10266312;28;20362;-67
2024/01/08 10:56:40;;;;;;;5.70;4.38;;;;;;;;;;10258186;28;20588;-68
2024/01/08 11:01:41;;;;;;;4.32;3.88;;;;;;;;;;10260205;28;20308;-67
2024/01/08 11:06:43;;;;;;;2.53;2.42;;;;;;;;;;10275064;28;20193;-67
2024/01/08 11:11:44;;;;;;;5.50;2.95;;;;;;;;;;10260067;28;20556;-68
2024/01/08 11:16:45;;;;;;;3.72;2.95;;;;;;;;;;10260186;28;20244;-68
2024/01/08 11:21:48;;;;;;;2.72;2.42;;;;;;;;;;10264565;28;20212;-68
2024/01/08 11:26:51;;;;;;;3.53;2.80;;;;;;;;;;10278086;28;20652;-68
2024/01/08 11:32:01;;;;;;;4.28;3.22;;;;;;;;;;10265436;28;20241;-69
2024/01/08 11:37:21;;;;;;;2.70;2.50;;;;;;;;;;10255505;28;20732;-68
2024/01/08 11:42:22;;;;;;;2.70;2.08;;;;;;;;;;10256003;28;20364;-68
2024/01/08 11:47:23;;;;;;;6.22;2.88;;;;;;;;;;10267701;28;20193;-68
2024/01/08 11:52:26;;;;;;;4.55;2.00;;;;;;;;;;10280989;28;20655;-68
2024/01/08 11:57:27;;;;;;;2.42;2.22;;;;;;;;;;10257408;28;20245;-68
2024/01/08 12:02:28;;;;;;;2.38;2.17;;;;;;;;;;10257030;28;20202;-68
2024/01/08 12:07:31;;;;;;;2.10;1.90;;;;;;;;;;10261222;28;20456;-68
2024/01/08 12:12:33;;;;;;;2.10;1.98;;;;;;;;;;10261532;28;20944;-68
2024/01/08 12:17:34;;;;;;;3.67;2.25;;;;;;;;;;10278599;28;20225;-68
2024/01/08 12:22:35;;;;;;;3.42;1.95;;;;;;;;;;10258556;28;20715;-68
2024/01/08 12:27:36;;;;;;;6.75;2.30;;;;;;;;;;10257067;28;20204;-68
2024/01/08 12:32:38;;;;;;;3.25;2.10;;;;;;;;;;10280308;28;20268;-68
2024/01/08 12:37:39;;;;;;;2.22;2.03;;;;;;;;;;10254413;28;20304;-69
2024/01/08 12:42:41;;;;;;;2.17;1.67;;;;;;;;;;10258123;28;20264;-68
2024/01/08 12:47:42;;;;;;;2.25;2.00;;;;;;;;;;10260042;28;20818;-68
2024/01/08 12:52:43;;;;;;;1.95;1.75;;;;;;;;;;10259251;28;20699;-68
2024/01/08 12:57:44;;;;;;;3.95;1.75;;;;;;;;;;10255440;28;20308;-68
2024/01/08 13:02:45;;;;;;;2.17;1.98;;;;;;;;;;10263449;28;20214;-68
2024/01/08 13:07:46;;;;;;;1.30;1.27;;;;;;;;;;10260599;28;20204;-68
2024/01/08 13:12:47;;;;;;;1.73;1.60;;;;;;;;;;10253311;28;20434;-68
2024/01/08 13:17:48;;;;;;;2.70;1.90;;;;;;;;;;10255697;28;20228;-68
2024/01/08 13:22:49;;;;;;;1.58;1.48;;;;;;;;;;10266248;28;20306;-68
2024/01/08 13:27:50;;;;;;;1.70;1.60;;;;;;;;;;10256281;28;20303;-68
2024/01/08 13:33:17;;;;;;;1.70;1.60;;;;;;;;;;10264791;28;20232;-66
2024/01/08 13:38:43;;;;;;;1.70;1.60;;;;;;;;;;10245138;28;20223;-66
2024/01/08 13:43:44;;;;;;;4.23;1.87;;;;;;;;;;10238325;28;20209;-68
2024/01/08 13:48:45;;;;;;;2.63;1.23;;;;;;;;;;10263075;28;20795;-67
2024/01/08 13:53:46;;;;;;;4.63;2.30;;;;;;;;;;10258057;28;20755;-67
2024/01/08 13:58:48;;;;;;;3.13;1.83;;;;;;;;;;10255528;28;20324;-66
2024/01/08 14:03:49;;;;;;;1.10;1.03;;;;;;;;;;10252733;28;20221;-66
2024/01/08 14:08:50;;;;;;;5.27;1.63;;;;;;;;;;10258852;28;20201;-67
2024/01/08 14:13:51;;;;;;;2.17;1.87;;;;;;;;;;10255890;28;20499;-67
2024/01/08 14:18:52;;;;;;;4.70;1.43;;;;;;;;;;10264012;28;20213;-67
2024/01/08 14:23:53;;;;;;;0.93;0.90;;;;;;;;;;10252749;28;20221;-68
2024/01/08 14:28:54;;;;;;;6.20;1.93;;;;;;;;;;10269755;28;20307;-66
2024/01/08 14:33:55;;;;;;;1.83;1.73;;;;;;;;;;10261241;28;20240;-68
2024/01/08 14:38:57;;;;;;;1.67;1.57;;;;;;;;;;10247513;28;20304;-68
2024/01/08 14:43:58;;;;;;;4.53;2.20;;;;;;;;;;10263094;28;20209;-68
2024/01/08 14:48:59;;;;;;;9.07;2.40;;;;;;;;;;10270266;28;20240;-66
2024/01/08 14:54:00;;;;;;;5.27;2.97;;;;;;;;;;10260660;28;20212;-67
2024/01/08 14:59:01;;;;;;;2.87;1.97;;;;;;;;;;10285018;28;20354;-67
2024/01/08 15:04:02;;;;;;;4.00;1.07;;;;;;;;;;10282362;28;20636;-68
2024/01/08 15:09:05;;;;;;;1.00;0.90;;;;;;;;;;10264181;28;20190;-67
2024/01/08 15:14:06;;;;;;;1.93;1.27;;;;;;;;;;10259679;28;20588;-67
2024/01/08 15:19:07;;;;;;;0.90;0.90;;;;;;;;;;10262873;28;20209;-68
2024/01/08 15:24:10;;;;;;;1.60;1.47;;;;;;;;;;10257519;28;20657;-66
2024/01/08 15:29:11;;;;;;;0.93;0.90;;;;;;;;;;10260726;28;20217;-66
2024/01/08 15:34:12;;;;;;;1.83;0.60;;;;;;;;;;10258748;28;20310;-66
2024/01/08 15:39:16;;;;;;;2.30;0.90;;;;;;;;;;10254288;28;20267;-67
2024/01/08 15:44:16;;;;;;;0.77;0.77;;;;;;;;;;10253753;28;20221;-67
2024/01/08 15:49:18;;;;;;;3.70;1.53;;;;;;;;;;10265647;28;20204;-67
2024/01/08 15:54:19;;;;;;;1.13;0.80;;;;;;;;;;10262737;28;20213;-67
2024/01/08 15:59:21;;;;;;;1.30;1.20;;;;;;;;;;10253789;28;20548;-67
2024/01/08 16:04:22;;;;;;;1.83;1.07;;;;;;;;;;10249161;28;20715;-67
2024/01/08 16:09:23;;;;;;;2.30;1.20;;;;;;;;;;10266568;28;20185;-68
2024/01/08 16:14:24;;;;;;;1.73;1.60;;;;;;;;;;10260188;28;20216;-66
2024/01/08 16:19:26;;;;;;;4.10;2.30;;;;;;;;;;10272911;28;20222;-66
2024/01/08 16:24:27;;;;;;;3.40;1.93;;;;;;;;;;10268333;28;20206;-68
2024/01/08 16:29:28;;;;;;;4.50;2.07;;;;;;;;;;10269308;28;20236;-68
2024/01/08 16:34:29;;;;;;;2.00;1.80;;;;;;;;;;10259363;28;20224;-66
2024/01/08 16:39:30;;;;;;;2.80;1.77;;;;;;;;;;10251150;28;20225;-66
2024/01/08 16:50:23;;;;;;;0.90;0.90;;;;;;;;;;10245955;28;20690;-68
2024/01/08 16:55:24;;;;;;;1.90;1.33;;;;;;;;;;10252440;28;20205;-66
2024/01/08 17:00:25;;;;;;;3.10;1.30;;;;;;;;;;10252046;28;20391;-66
2024/01/08 17:05:26;;;;;;;4.33;1.60;;;;;;;;;;10261351;28;20200;-68
2024/01/08 17:10:27;;;;;;;1.07;1.07;;;;;;;;;;10248252;28;20229;-66
2024/01/08 17:15:28;;;;;;;2.63;1.13;;;;;;;;;;10251328;28;20201;-68
2024/01/08 17:20:29;;;;;;;1.73;1.27;;;;;;;;;;10259104;28;20582;-66
2024/01/08 17:25:30;;;;;;;2.33;0.97;;;;;;;;;;10250487;28;20692;-67
2024/01/08 17:30:31;;;;;;;2.27;1.13;;;;;;;;;;10259317;28;20232;-66
2024/01/08 17:35:32;;;;;;;1.30;0.97;;;;;;;;;;10249207;28;20193;-66
2024/01/08 17:40:33;;;;;;;1.90;0.90;;;;;;;;;;10248983;28;20515;-67
2024/01/08 17:45:34;;;;;;;1.67;1.00;;;;;;;;;;10272027;28;20436;-66
2024/01/08 17:50:35;;;;;;;0.87;0.87;;;;;;;;;;10253967;28;20213;-67
2024/01/08 17:55:36;;;;;;;8.83;1.20;;;;;;;;;;10269340;28;20571;-67
2024/01/08 18:00:37;;;;;;;2.47;2.07;;;;;;;;;;10241164;28;20623;-67
2024/01/08 18:05:39;;;;;;;3.70;1.93;;;;;;;;;;10257426;28;20532;-67
2024/01/08 18:10:40;;;;;;;5.27;2.07;;;;;;;;;;10247364;28;20201;-67
2024/01/08 18:15:42;;;;;;;3.20;1.93;;;;;;;;;;10265476;28;20195;-67
2024/01/08 18:20:43;;;;;;;3.97;2.47;;;;;;;;;;10276887;28;20209;-67
2024/01/08 18:25:45;;;;;;;1.60;1.50;;;;;;;;;;10230599;28;20677;-67
2024/01/08 18:30:46;;;;;;;4.40;1.57;;;;;;;;;;10272695;28;20615;-66
2024/01/08 18:35:48;;;;;;;1.23;1.13;;;;;;;;;;10241260;28;20846;-67
2024/01/08 18:40:49;;;;;;;1.13;1.03;;;;;;;;;;10257465;28;20708;-67
2024/01/08 18:45:50;;;;;;;2.63;1.17;;;;;;;;;;10257533;28;20196;-67
2024/01/08 18:50:54;;;;;;;1.87;1.30;;;;;;;;;;10279771;28;20815;-67
2024/01/08 18:55:57;;;;;;;1.73;1.60;;;;;;;;;;10251395;28;20201;-67
2024/01/08 19:01:00;;;;;;;1.63;1.07;;;;;;;;;;10247016;28;20225;-69
2024/01/08 19:06:01;;;;;;;4.90;2.60;;;;;;;;;;10266374;28;20661;-68
2024/01/08 19:11:02;;;;;;;7.57;2.77;;;;;;;;;;10265361;28;20679;-67
2024/01/08 19:16:03;;;;;;;2.93;1.37;;;;;;;;;;10276673;28;20662;-67
2024/01/08 19:21:05;;;;;;;2.40;2.10;;;;;;;;;;10250246;28;20731;-67
2024/01/08 19:26:06;;;;;;;2.70;1.93;;;;;;;;;;10254960;28;20189;-67
2024/01/08 19:31:08;;;;;;;3.20;1.87;;;;;;;;;;10262127;28;20221;-67
2024/01/08 19:36:09;;;;;;;1.50;1.40;;;;;;;;;;10261887;28;20728;-67
2024/01/08 19:41:10;;;;;;;4.50;1.60;;;;;;;;;;10255533;28;20276;-68
2024/01/08 19:46:13;;;;;;;3.30;1.83;;;;;;;;;;10266061;28;20190;-67
2024/01/08 19:51:14;;;;;;;3.27;1.53;;;;;;;;;;10262468;28;20809;-67
2024/01/08 19:56:15;;;;;;;2.47;1.77;;;;;;;;;;10258404;28;20277;-67
2024/01/08 20:01:17;;;;;;;4.73;1.63;;;;;;;;;;10256468;28;20810;-67
2024/01/08 20:06:18;;;;;;;5.13;2.33;;;;;;;;;;10254250;28;20190;-67
2024/01/08 20:11:19;;;;;;;4.97;2.13;;;;;;;;;;10257477;28;20217;-67
2024/01/08 20:16:20;;;;;;;6.60;2.10;;;;;;;;;;10258522;28;20288;-68
2024/01/08 20:21:23;;;;;;;3.10;2.13;;;;;;;;;;10248654;28;20549;-68
2024/01/08 20:26:24;;;;;;;3.67;1.93;;;;;;;;;;10272661;28;20564;-68
2024/01/08 20:31:25;;;;;;;2.17;1.93;;;;;;;;;;10268103;28;20217;-68
2024/01/08 20:36:26;;;;;;;2.00;1.43;;;;;;;;;;10268671;28;20727;-67
2024/01/08 20:41:29;;;;;;;1.77;1.73;;;;;;;;;;10249789;28;20213;-67
2024/01/08 20:46:30;;;;;;;3.67;2.10;;;;;;;;;;10252757;28;20738;-67
2024/01/08 20:51:31;;;;;;;1.83;1.73;;;;;;;;;;10256991;28;20292;-67
2024/01/08 20:56:32;;;;;;;4.83;2.23;;;;;;;;;;10261838;28;20240;-67
2024/01/08 21:01:35;;;;;;;4.63;2.00;;;;;;;;;;10263743;28;20224;-67
2024/01/08 21:06:36;;;;;;;7.87;2.17;;;;;;;;;;10270664;28;20193;-67
2024/01/08 21:11:37;;;;;;;2.50;1.70;;;;;;;;;;10272615;28;20217;-67
2024/01/08 21:16:38;;;;;;;5.13;1.60;;;;;;;;;;10277359;28;20281;-67
2024/01/08 21:21:41;;;;;;;5.57;2.10;;;;;;;;;;10260854;28;20222;-67
2024/01/08 21:26:42;;;;;;;4.10;2.50;;;;;;;;;;10249166;28;20274;-67
2024/01/08 21:31:49;;;;;;;4.07;2.50;;;;;;;;;;10288676;28;20237;-67
2024/01/08 21:36:50;;;;;;;4.97;2.30;;;;;;;;;;10281502;28;20201;-67
2024/01/08 21:41:51;;;;;;;2.30;2.20;;;;;;;;;;10265297;28;20698;-67
2024/01/08 21:46:52;;;;;;;7.33;3.00;;;;;;;;;;10277471;28;20179;-67
2024/01/08 21:51:53;;;;;;;5.03;2.73;;;;;;;;;;10264235;28;20264;-67
2024/01/08 21:56:54;;;;;;;6.53;2.23;;;;;;;;;;10271603;28;20281;-67
2024/01/08 22:01:56;;;;;;;4.23;2.07;;;;;;;;;;10278604;28;20357;-67
2024/01/08 22:06:57;;;;;;;4.00;1.87;;;;;;;;;;10266459;28;20280;-67
2024/01/08 22:11:58;;;;;;;3.90;2.10;;;;;;;;;;10273279;28;20200;-67
2024/01/08 22:16:59;;;;;;;6.33;1.93;;;;;;;;;;10272550;28;20181;-67
2024/01/08 22:22:00;;;;;;;2.73;1.50;;;;;;;;;;10259119;28;20225;-67
2024/01/08 22:27:01;;;;;;;5.70;1.73;;;;;;;;;;10269597;28;20181;-67
2024/01/08 22:32:02;;;;;;;4.83;2.20;;;;;;;;;;10272078;28;20901;-67
2024/01/08 22:37:04;;;;;;;5.23;2.30;;;;;;;;;;10265343;28;20567;-67
2024/01/08 22:42:05;;;;;;;4.90;2.20;;;;;;;;;;10261631;28;20201;-67
2024/01/08 22:47:06;;;;;;;4.67;2.23;;;;;;;;;;10265576;28;20194;-67
2024/01/08 22:52:07;;;;;;;4.60;2.23;;;;;;;;;;10271845;28;20688;-67
2024/01/08 22:57:08;;;;;;;5.00;1.93;;;;;;;;;;10270071;28;20686;-67
2024/01/08 23:02:09;;;;;;;3.73;1.80;;;;;;;;;;10274489;28;20242;-67
2024/01/08 23:07:11;;;;;;;2.83;2.03;;;;;;;;;;10282255;28;20195;-67
2024/01/08 23:12:12;;;;;;;3.97;2.27;;;;;;;;;;10272609;28;20206;-67
2024/01/08 23:17:13;;;;;;;3.37;2.40;;;;;;;;;;10271560;28;20193;-68
2024/01/08 23:22:14;;;;;;;3.43;3.13;;;;;;;;;;10285226;28;20202;-67
2024/01/08 23:27:15;;;;;;;4.40;2.50;;;;;;;;;;10281306;28;20208;-67
2024/01/08 23:32:16;;;;;;;6.10;1.70;;;;;;;;;;10250880;28;1008152;-68
2024/01/08 23:37:17;;;;;;;2.67;2.23;;;;;;;;;;10260569;28;20280;-67
2024/01/08 23:42:18;;;;;;;6.13;1.87;;;;;;;;;;10284441;28;20213;-67
2024/01/08 23:47:19;;;;;;;3.60;1.73;;;;;;;;;;10277341;28;20288;-67
2024/01/08 23:52:20;;;;;;;3.80;2.40;;;;;;;;;;10271889;28;20241;-68
2024/01/08 23:57:21;;;;;;;4.60;2.20;;;;;;;;;;10277533;28;20190;-67
